Downstream station:
SHEF ID: GCSO2 Cave Springs Br nr South W C
STATION TYPE:
STAGE STAGE(2) RIV-FLOW BAT-LOAD
ft ft cfs volt
Ccp-Rev Ccp-Rev Ccp-Rev Ccp-Rev
(US/Central)
03/25 00:00 2.64 4.74 0 12.49
03/25 01:00 2.56 4.72 0 12.41
03/25 02:00 2.50 4.71 0 12.41
03/25 03:00 2.45 4.71 0 12.41
03/25 04:00 2.41 4.71 0 12.41
03/25 05:00 2.38 4.71 0 12.33
03/25 06:00 2.33 4.73 0 12.33
03/25 07:00 2.29 4.71 0 12.33
03/25 08:00 2.29 4.74 0 12.33
03/25 09:00 2.60 4.73 0 12.41
03/25 10:00 3.30 4.73 0 13.21
03/25 11:00 3.76 4.74 0 13.21
03/25 12:00 3.75 4.74 0 13.21
03/25 13:00 3.86 4.72 0 13.21
03/25 14:00 4.11 4.75 0 13.21
03/25 15:00 4.05 4.72 0 13.21
03/25 16:00 4.09 4.73 0 13.29
03/25 17:00 4.10 4.72 0 13.29
03/25 18:00 4.02 4.74 0 13.44
03/25 19:00 3.83 4.71 0 13.37
03/25 20:00 3.55 4.73 0 12.97
03/25 21:00 3.33 4.73 0 12.73
03/25 22:00 3.11 4.74 0 12.57
03/25 23:00 2.90 4.73 0 12.49